createdAt,value
2023-06-07T00:05:58.651Z,18.91
2023-06-07T00:21:40.816Z,18.75
2023-06-07T00:37:23.278Z,18.6
2023-06-07T01:08:48.380Z,18.32
2023-06-07T01:24:30.995Z,18.19
2023-06-07T01:40:13.099Z,18.04
2023-06-07T01:55:55.424Z,17.85
2023-06-07T02:11:37.574Z,17.74
2023-06-07T02:27:19.823Z,17.7
2023-06-07T02:43:02.636Z,17.67
2023-06-07T02:58:45.024Z,17.62
2023-06-07T03:14:27.539Z,17.58
2023-06-07T03:30:09.745Z,17.54
2023-06-07T03:45:52.034Z,17.67
2023-06-07T04:01:34.077Z,17.89
2023-06-07T04:17:17.056Z,18.19
2023-06-07T04:32:59.822Z,18.5
2023-06-07T04:48:42.513Z,18.7
2023-06-07T05:04:24.689Z,19.06
2023-06-07T05:20:07.300Z,19.19
2023-06-07T05:35:49.728Z,19.45
2023-06-07T05:51:31.741Z,19.94
2023-06-07T06:07:14.813Z,20.27
2023-06-07T06:22:57.365Z,20.95
2023-06-07T06:38:40.100Z,21.69
2023-06-07T06:54:22.919Z,22.3
2023-06-07T07:10:05.325Z,22.73
2023-06-07T07:25:48.097Z,23.43
2023-06-07T07:41:30.488Z,24.33
2023-06-07T07:57:12.616Z,25.12
2023-06-07T08:12:55.251Z,25.85
2023-06-07T08:28:38.064Z,26.58
2023-06-07T08:44:20.886Z,26.64
2023-06-07T09:00:03.706Z,27.62
2023-06-07T09:15:46.403Z,29.8
2023-06-07T09:31:28.733Z,31.54
2023-06-07T09:47:10.680Z,32.63
2023-06-07T10:02:52.904Z,33.15
2023-06-07T10:18:35.253Z,33.31
2023-06-07T10:34:18.059Z,34.68
2023-06-07T10:50:00.110Z,36.62
2023-06-07T11:05:42.616Z,37.59
2023-06-07T11:21:25.241Z,38.93
2023-06-07T11:37:07.572Z,38.68
2023-06-07T11:52:50.308Z,39.23
2023-06-07T12:08:32.926Z,40.04
2023-06-07T12:39:57.163Z,42.43
2023-06-07T12:55:39.670Z,42.75
2023-06-07T13:27:04.005Z,35.59
2023-06-07T13:42:46.885Z,35.07
2023-06-07T13:58:29.102Z,37.43
2023-06-07T14:14:11.867Z,40.57
2023-06-07T14:29:54.417Z,41.62
2023-06-07T14:45:36.970Z,42.3
2023-06-07T15:01:18.901Z,42.36
2023-06-07T15:17:01.183Z,40.25
2023-06-07T15:32:43.786Z,37.52
2023-06-07T15:48:26.554Z,36.79
2023-06-07T16:04:09.018Z,36.7
2023-06-07T16:19:51.772Z,35.31
2023-06-07T16:35:34.040Z,34
2023-06-07T16:51:16.878Z,32.66
2023-06-07T17:06:58.721Z,31.58
2023-06-07T17:22:40.666Z,30.5
2023-06-07T17:38:23.119Z,29.55
2023-06-07T17:39:10.298Z,29.65
2023-06-07T17:54:52.320Z,28.63
2023-06-07T18:10:34.640Z,27.89
2023-06-07T18:26:16.924Z,27.23
2023-06-07T18:41:59.043Z,26.7
2023-06-07T18:57:41.449Z,26.16
2023-06-07T19:13:24.287Z,25.46
2023-06-07T19:29:06.388Z,24.81
2023-06-07T19:44:49.193Z,24.15
2023-06-07T20:00:31.833Z,23.59
2023-06-07T20:16:14.064Z,23.27
2023-06-07T20:31:56.342Z,23.09
2023-06-07T20:47:38.818Z,22.91
2023-06-07T21:03:21.229Z,22.66
2023-06-07T21:19:03.354Z,22.39
2023-06-07T21:34:46.071Z,22.15
2023-06-07T21:50:28.811Z,21.92
2023-06-07T22:06:11.056Z,21.71
2023-06-07T22:21:53.112Z,21.45
2023-06-07T22:37:36.016Z,21.19
2023-06-07T22:53:18.219Z,20.97
2023-06-07T23:09:00.890Z,20.76
2023-06-07T23:24:43.465Z,20.49
2023-06-07T23:40:26.074Z,20.14
